Main page
METAR-TAF:

METAR-TAF

Airports :

Agen La Garenne Airport

Agen, France

latitude: 44-11N, longitude: 000-36E, elevation: 61 m

Current weather observation

The report was made 21 minutes ago, at 23:30 UTC
Wind 3 kt from the West, varying between South/Southwest and North/Northwest
Temperature 12°C
Humidity 88%
Pressure 1024 hPa
Visibility 10 km or more
Few clouds at a height of 3600 ft
Broken clouds at a height of 24000 ft

METAR: LFBA 282330Z AUTO 27003KT 200V340 9999 FEW036 BKN240 12/10 Q1024

Time: 00:51 (23:51 UTC)

Forecast

The report was made 6 hours and 51 minutes ago, at 17:00 UTC
Forecast valid from 28 at 18 UTC to 29 at 03 UTC
Wind 5 kt from the Southwest
Visibility 10 km or more
Broken clouds at a height of 3000 ft
Becoming
from 28 at 19 UTC to 28 at 21 UTC
Wind 10 kt from the Southwest

TAF: LFBA 281700Z 2818/2903 23005KT 9999 BKN030 BECMG 2819/2821 23010KT

Weather observations and forecasts of more than 4000 airports (METAR and TAF reports).

The available stations are represented by yellow and red dots on the map.

Hover mouse over dot to see the name of the station.

Then click to see weather observations and forecasts.

To change the map : click on the green buttons with a black cross to zoom in, on the green button with a dash to zoom out, or on the green arrows for adjacent maps.


METAR-TAF: